sensor_id;sensor_type;location;lat;lon;timestamp;P1;durP1;ratioP1;P2;durP2;ratioP2
66472;SDS011;53291;51.680;8.344;2022-08-16T00:02:20;8.02;;;6.07;;
66472;SDS011;53291;51.680;8.344;2022-08-16T00:04:45;6.63;;;5.05;;
66472;SDS011;53291;51.680;8.344;2022-08-16T00:07:11;7.75;;;5.72;;
66472;SDS011;53291;51.680;8.344;2022-08-16T00:09:36;6.85;;;6.13;;
66472;SDS011;53291;51.680;8.344;2022-08-16T00:12:01;7.28;;;5.00;;
66472;SDS011;53291;51.680;8.344;2022-08-16T00:14:28;9.43;;;6.53;;
66472;SDS011;53291;51.680;8.344;2022-08-16T00:16:56;6.97;;;6.28;;
66472;SDS011;53291;51.680;8.344;2022-08-16T00:19:24;7.90;;;6.20;;
66472;SDS011;53291;51.680;8.344;2022-08-16T00:21:52;9.73;;;6.13;;
66472;SDS011;53291;51.680;8.344;2022-08-16T00:24:18;7.07;;;6.00;;
66472;SDS011;53291;51.680;8.344;2022-08-16T00:26:44;6.90;;;6.15;;
66472;SDS011;53291;51.680;8.344;2022-08-16T00:29:11;7.75;;;5.93;;
66472;SDS011;53291;51.680;8.344;2022-08-16T00:31:38;8.57;;;6.38;;
66472;SDS011;53291;51.680;8.344;2022-08-16T00:34:03;8.68;;;5.20;;
66472;SDS011;53291;51.680;8.344;2022-08-16T00:36:29;7.55;;;5.82;;
66472;SDS011;53291;51.680;8.344;2022-08-16T00:38:54;9.23;;;5.80;;
66472;SDS011;53291;51.680;8.344;2022-08-16T00:41:20;7.93;;;6.28;;
66472;SDS011;53291;51.680;8.344;2022-08-16T00:43:46;7.53;;;6.13;;
66472;SDS011;53291;51.680;8.344;2022-08-16T00:48:42;8.40;;;6.30;;
66472;SDS011;53291;51.680;8.344;2022-08-16T00:51:09;6.85;;;5.50;;
66472;SDS011;53291;51.680;8.344;2022-08-16T00:53:35;8.10;;;6.28;;
66472;SDS011;53291;51.680;8.344;2022-08-16T00:56:03;6.55;;;5.72;;
66472;SDS011;53291;51.680;8.344;2022-08-16T00:58:37;6.43;;;5.70;;
66472;SDS011;53291;51.680;8.344;2022-08-16T01:01:05;8.25;;;6.10;;
66472;SDS011;53291;51.680;8.344;2022-08-16T01:03:31;6.20;;;5.45;;
66472;SDS011;53291;51.680;8.344;2022-08-16T01:05:56;6.93;;;5.47;;
66472;SDS011;53291;51.680;8.344;2022-08-16T01:08:23;6.47;;;5.63;;
66472;SDS011;53291;51.680;8.344;2022-08-16T01:10:50;6.35;;;5.40;;
66472;SDS011;53291;51.680;8.344;2022-08-16T01:13:18;6.05;;;5.18;;
66472;SDS011;53291;51.680;8.344;2022-08-16T01:15:48;7.40;;;5.45;;
66472;SDS011;53291;51.680;8.344;2022-08-16T01:18:17;6.75;;;3.88;;
66472;SDS011;53291;51.680;8.344;2022-08-16T01:20:47;6.28;;;5.43;;
66472;SDS011;53291;51.680;8.344;2022-08-16T01:23:25;5.20;;;4.68;;
66472;SDS011;53291;51.680;8.344;2022-08-16T01:26:00;6.25;;;5.35;;
66472;SDS011;53291;51.680;8.344;2022-08-16T01:28:26;6.97;;;5.22;;
66472;SDS011;53291;51.680;8.344;2022-08-16T01:30:53;7.70;;;4.85;;
66472;SDS011;53291;51.680;8.344;2022-08-16T01:33:20;5.85;;;4.65;;
66472;SDS011;53291;51.680;8.344;2022-08-16T01:38:31;6.78;;;5.38;;
66472;SDS011;53291;51.680;8.344;2022-08-16T01:41:04;6.93;;;5.65;;
66472;SDS011;53291;51.680;8.344;2022-08-16T01:43:36;6.28;;;4.60;;
66472;SDS011;53291;51.680;8.344;2022-08-16T01:46:04;6.63;;;5.20;;
66472;SDS011;53291;51.680;8.344;2022-08-16T01:48:32;6.15;;;4.85;;
66472;SDS011;53291;51.680;8.344;2022-08-16T01:50:59;6.00;;;4.70;;
66472;SDS011;53291;51.680;8.344;2022-08-16T01:53:26;6.68;;;4.65;;
66472;SDS011;53291;51.680;8.344;2022-08-16T01:55:52;7.07;;;4.97;;
66472;SDS011;53291;51.680;8.344;2022-08-16T01:58:18;6.38;;;5.10;;
66472;SDS011;53291;51.680;8.344;2022-08-16T02:00:45;4.93;;;4.30;;
66472;SDS011;53291;51.680;8.344;2022-08-16T02:03:11;7.82;;;3.92;;
66472;SDS011;53291;51.680;8.344;2022-08-16T02:05:38;6.55;;;4.70;;
66472;SDS011;53291;51.680;8.344;2022-08-16T02:08:05;6.60;;;4.50;;
66472;SDS011;53291;51.680;8.344;2022-08-16T02:10:32;5.82;;;4.50;;
66472;SDS011;53291;51.680;8.344;2022-08-16T02:12:58;6.07;;;4.60;;
66472;SDS011;53291;51.680;8.344;2022-08-16T02:15:25;5.47;;;4.38;;
66472;SDS011;53291;51.680;8.344;2022-08-16T02:17:56;7.30;;;4.95;;
66472;SDS011;53291;51.680;8.344;2022-08-16T02:20:23;6.28;;;4.53;;
66472;SDS011;53291;51.680;8.344;2022-08-16T02:22:50;5.93;;;4.50;;
66472;SDS011;53291;51.680;8.344;2022-08-16T02:25:16;6.55;;;4.65;;
66472;SDS011;53291;51.680;8.344;2022-08-16T02:27:42;4.88;;;4.25;;
66472;SDS011;53291;51.680;8.344;2022-08-16T02:30:11;6.97;;;4.57;;
66472;SDS011;53291;51.680;8.344;2022-08-16T02:32:46;5.90;;;4.90;;
66472;SDS011;53291;51.680;8.344;2022-08-16T02:35:12;6.75;;;4.38;;
66472;SDS011;53291;51.680;8.344;2022-08-16T02:37:38;5.38;;;4.32;;
66472;SDS011;53291;51.680;8.344;2022-08-16T02:40:04;5.78;;;4.93;;
66472;SDS011;53291;51.680;8.344;2022-08-16T02:42:30;9.77;;;5.10;;
66472;SDS011;53291;51.680;8.344;2022-08-16T02:44:56;5.57;;;4.60;;
66472;SDS011;53291;51.680;8.344;2022-08-16T02:47:21;6.85;;;3.47;;
66472;SDS011;53291;51.680;8.344;2022-08-16T02:49:47;6.80;;;4.72;;
66472;SDS011;53291;51.680;8.344;2022-08-16T02:52:13;4.93;;;3.83;;
66472;SDS011;53291;51.680;8.344;2022-08-16T02:54:38;6.53;;;5.22;;
66472;SDS011;53291;51.680;8.344;2022-08-16T02:57:04;6.65;;;4.75;;
66472;SDS011;53291;51.680;8.344;2022-08-16T02:59:29;5.75;;;4.50;;
66472;SDS011;53291;51.680;8.344;2022-08-16T03:01:55;7.03;;;5.05;;
66472;SDS011;53291;51.680;8.344;2022-08-16T03:04:21;7.07;;;4.72;;
66472;SDS011;53291;51.680;8.344;2022-08-16T03:06:47;6.85;;;5.20;;
66472;SDS011;53291;51.680;8.344;2022-08-16T03:09:14;6.65;;;4.78;;
66472;SDS011;53291;51.680;8.344;2022-08-16T03:11:39;6.28;;;4.95;;
66472;SDS011;53291;51.680;8.344;2022-08-16T03:14:05;6.90;;;5.53;;
66472;SDS011;53291;51.680;8.344;2022-08-16T03:16:31;6.20;;;4.57;;
66472;SDS011;53291;51.680;8.344;2022-08-16T03:18:56;6.65;;;5.05;;
66472;SDS011;53291;51.680;8.344;2022-08-16T03:21:22;7.07;;;5.68;;
66472;SDS011;53291;51.680;8.344;2022-08-16T03:23:47;7.43;;;5.03;;
66472;SDS011;53291;51.680;8.344;2022-08-16T03:26:13;7.68;;;5.35;;
66472;SDS011;53291;51.680;8.344;2022-08-16T03:28:39;6.85;;;5.45;;
66472;SDS011;53291;51.680;8.344;2022-08-16T03:31:05;7.10;;;5.28;;
66472;SDS011;53291;51.680;8.344;2022-08-16T03:33:31;7.18;;;5.32;;
66472;SDS011;53291;51.680;8.344;2022-08-16T03:35:57;7.18;;;5.45;;
66472;SDS011;53291;51.680;8.344;2022-08-16T03:38:24;6.75;;;5.43;;
66472;SDS011;53291;51.680;8.344;2022-08-16T03:40:51;6.53;;;5.10;;
66472;SDS011;53291;51.680;8.344;2022-08-16T03:43:17;6.30;;;4.63;;
66472;SDS011;53291;51.680;8.344;2022-08-16T03:45:42;6.82;;;5.43;;
66472;SDS011;53291;51.680;8.344;2022-08-16T03:48:08;7.82;;;5.45;;
66472;SDS011;53291;51.680;8.344;2022-08-16T03:50:35;7.40;;;5.30;;
66472;SDS011;53291;51.680;8.344;2022-08-16T03:53:01;7.65;;;4.93;;
66472;SDS011;53291;51.680;8.344;2022-08-16T03:55:29;7.03;;;5.72;;
66472;SDS011;53291;51.680;8.344;2022-08-16T03:57:54;7.18;;;5.43;;
66472;SDS011;53291;51.680;8.344;2022-08-16T04:00:21;8.13;;;5.32;;
66472;SDS011;53291;51.680;8.344;2022-08-16T04:02:53;7.32;;;5.25;;
66472;SDS011;53291;51.680;8.344;2022-08-16T04:05:20;7.75;;;5.32;;
66472;SDS011;53291;51.680;8.344;2022-08-16T04:07:46;10.85;;;5.53;;
66472;SDS011;53291;51.680;8.344;2022-08-16T04:10:12;9.70;;;5.57;;
66472;SDS011;53291;51.680;8.344;2022-08-16T04:12:38;7.38;;;5.65;;
66472;SDS011;53291;51.680;8.344;2022-08-16T04:15:05;6.82;;;5.38;;
66472;SDS011;53291;51.680;8.344;2022-08-16T04:17:33;7.95;;;5.32;;
66472;SDS011;53291;51.680;8.344;2022-08-16T04:19:58;8.80;;;5.85;;
66472;SDS011;53291;51.680;8.344;2022-08-16T04:22:24;7.53;;;5.45;;
66472;SDS011;53291;51.680;8.344;2022-08-16T04:24:49;6.28;;;5.40;;
66472;SDS011;53291;51.680;8.344;2022-08-16T04:27:15;7.13;;;5.40;;
66472;SDS011;53291;51.680;8.344;2022-08-16T04:29:40;6.82;;;5.05;;
66472;SDS011;53291;51.680;8.344;2022-08-16T04:32:06;6.88;;;5.38;;
66472;SDS011;53291;51.680;8.344;2022-08-16T04:34:32;8.30;;;5.75;;
66472;SDS011;53291;51.680;8.344;2022-08-16T04:36:59;8.50;;;5.47;;
66472;SDS011;53291;51.680;8.344;2022-08-16T04:39:26;9.07;;;5.93;;
66472;SDS011;53291;51.680;8.344;2022-08-16T04:41:52;9.05;;;6.18;;
66472;SDS011;53291;51.680;8.344;2022-08-16T04:44:18;6.85;;;5.20;;
66472;SDS011;53291;51.680;8.344;2022-08-16T04:46:43;7.60;;;5.30;;
66472;SDS011;53291;51.680;8.344;2022-08-16T04:49:09;7.55;;;5.72;;
66472;SDS011;53291;51.680;8.344;2022-08-16T04:51:35;7.45;;;5.25;;
66472;SDS011;53291;51.680;8.344;2022-08-16T04:54:02;9.45;;;6.32;;
66472;SDS011;53291;51.680;8.344;2022-08-16T04:56:28;7.00;;;5.15;;
66472;SDS011;53291;51.680;8.344;2022-08-16T04:58:53;7.88;;;5.70;;
66472;SDS011;53291;51.680;8.344;2022-08-16T05:01:19;7.53;;;5.10;;
66472;SDS011;53291;51.680;8.344;2022-08-16T05:03:44;8.50;;;5.90;;
66472;SDS011;53291;51.680;8.344;2022-08-16T05:06:10;8.15;;;5.13;;
66472;SDS011;53291;51.680;8.344;2022-08-16T05:08:36;9.18;;;5.95;;
66472;SDS011;53291;51.680;8.344;2022-08-16T05:11:03;6.60;;;5.20;;
66472;SDS011;53291;51.680;8.344;2022-08-16T05:13:30;7.90;;;5.03;;
66472;SDS011;53291;51.680;8.344;2022-08-16T05:15:57;6.70;;;4.72;;
66472;SDS011;53291;51.680;8.344;2022-08-16T05:18:22;7.68;;;4.32;;
66472;SDS011;53291;51.680;8.344;2022-08-16T05:20:48;6.53;;;5.03;;
66472;SDS011;53291;51.680;8.344;2022-08-16T05:23:13;7.45;;;5.00;;
66472;SDS011;53291;51.680;8.344;2022-08-16T05:25:41;9.20;;;5.05;;
66472;SDS011;53291;51.680;8.344;2022-08-16T05:28:06;7.93;;;4.82;;
66472;SDS011;53291;51.680;8.344;2022-08-16T05:30:34;6.47;;;4.40;;
66472;SDS011;53291;51.680;8.344;2022-08-16T05:33:00;6.63;;;4.75;;
66472;SDS011;53291;51.680;8.344;2022-08-16T05:35:25;6.93;;;4.78;;
66472;SDS011;53291;51.680;8.344;2022-08-16T05:37:50;7.68;;;4.35;;
66472;SDS011;53291;51.680;8.344;2022-08-16T05:40:16;7.43;;;5.22;;
66472;SDS011;53291;51.680;8.344;2022-08-16T05:42:41;8.63;;;5.15;;
66472;SDS011;53291;51.680;8.344;2022-08-16T05:45:07;5.57;;;4.13;;
66472;SDS011;53291;51.680;8.344;2022-08-16T05:47:33;6.40;;;4.70;;
66472;SDS011;53291;51.680;8.344;2022-08-16T05:49:58;6.47;;;4.95;;
66472;SDS011;53291;51.680;8.344;2022-08-16T05:52:24;7.82;;;5.07;;
66472;SDS011;53291;51.680;8.344;2022-08-16T05:54:49;8.15;;;4.88;;
66472;SDS011;53291;51.680;8.344;2022-08-16T05:57:16;6.90;;;4.65;;
66472;SDS011;53291;51.680;8.344;2022-08-16T05:59:43;6.57;;;4.53;;
66472;SDS011;53291;51.680;8.344;2022-08-16T06:02:09;6.82;;;4.93;;
66472;SDS011;53291;51.680;8.344;2022-08-16T06:04:34;6.45;;;4.28;;
66472;SDS011;53291;51.680;8.344;2022-08-16T06:07:00;8.70;;;5.50;;
66472;SDS011;53291;51.680;8.344;2022-08-16T06:09:29;9.30;;;4.85;;
66472;SDS011;53291;51.680;8.344;2022-08-16T06:11:55;9.60;;;4.97;;
66472;SDS011;53291;51.680;8.344;2022-08-16T06:14:20;8.40;;;5.63;;
66472;SDS011;53291;51.680;8.344;2022-08-16T06:16:46;9.70;;;6.18;;
66472;SDS011;53291;51.680;8.344;2022-08-16T06:19:11;13.48;;;7.45;;
66472;SDS011;53291;51.680;8.344;2022-08-16T06:21:36;10.20;;;6.28;;
66472;SDS011;53291;51.680;8.344;2022-08-16T06:24:02;8.18;;;4.60;;
66472;SDS011;53291;51.680;8.344;2022-08-16T06:26:28;10.18;;;6.57;;
66472;SDS011;53291;51.680;8.344;2022-08-16T06:28:54;10.18;;;5.45;;
66472;SDS011;53291;51.680;8.344;2022-08-16T06:31:19;10.30;;;5.65;;
66472;SDS011;53291;51.680;8.344;2022-08-16T06:33:45;7.75;;;5.13;;
66472;SDS011;53291;51.680;8.344;2022-08-16T06:36:11;5.30;;;4.53;;
66472;SDS011;53291;51.680;8.344;2022-08-16T06:38:37;7.53;;;4.72;;
66472;SDS011;53291;51.680;8.344;2022-08-16T06:41:06;5.35;;;3.50;;
66472;SDS011;53291;51.680;8.344;2022-08-16T06:43:33;5.28;;;3.67;;
66472;SDS011;53291;51.680;8.344;2022-08-16T06:45:59;7.30;;;4.80;;
66472;SDS011;53291;51.680;8.344;2022-08-16T06:48:25;6.05;;;3.72;;
66472;SDS011;53291;51.680;8.344;2022-08-16T06:50:51;6.78;;;4.75;;
66472;SDS011;53291;51.680;8.344;2022-08-16T06:53:17;5.60;;;4.38;;
66472;SDS011;53291;51.680;8.344;2022-08-16T06:55:42;5.97;;;4.22;;
66472;SDS011;53291;51.680;8.344;2022-08-16T06:58:08;6.97;;;4.05;;
66472;SDS011;53291;51.680;8.344;2022-08-16T07:00:34;5.47;;;3.42;;
66472;SDS011;53291;51.680;8.344;2022-08-16T07:03:01;17.23;;;9.15;;
66472;SDS011;53291;51.680;8.344;2022-08-16T07:05:26;12.52;;;6.45;;
66472;SDS011;53291;51.680;8.344;2022-08-16T07:07:55;9.13;;;5.10;;
66472;SDS011;53291;51.680;8.344;2022-08-16T07:10:21;6.13;;;3.97;;
66472;SDS011;53291;51.680;8.344;2022-08-16T07:12:48;7.55;;;4.32;;
66472;SDS011;53291;51.680;8.344;2022-08-16T07:15:15;5.88;;;3.58;;
66472;SDS011;53291;51.680;8.344;2022-08-16T07:17:42;6.18;;;3.75;;
66472;SDS011;53291;51.680;8.344;2022-08-16T07:20:08;6.22;;;4.63;;
66472;SDS011;53291;51.680;8.344;2022-08-16T07:22:34;5.25;;;4.10;;
66472;SDS011;53291;51.680;8.344;2022-08-16T07:25:00;7.07;;;3.80;;
66472;SDS011;53291;51.680;8.344;2022-08-16T07:27:26;6.18;;;4.05;;
66472;SDS011;53291;51.680;8.344;2022-08-16T07:29:51;7.00;;;4.90;;
66472;SDS011;53291;51.680;8.344;2022-08-16T07:32:17;4.75;;;3.60;;
66472;SDS011;53291;51.680;8.344;2022-08-16T07:34:44;6.10;;;3.13;;
66472;SDS011;53291;51.680;8.344;2022-08-16T07:37:10;5.90;;;3.63;;
66472;SDS011;53291;51.680;8.344;2022-08-16T07:39:36;4.38;;;2.75;;
66472;SDS011;53291;51.680;8.344;2022-08-16T07:42:03;4.45;;;3.65;;
66472;SDS011;53291;51.680;8.344;2022-08-16T07:44:28;4.93;;;3.40;;
66472;SDS011;53291;51.680;8.344;2022-08-16T07:46:54;4.35;;;2.70;;
66472;SDS011;53291;51.680;8.344;2022-08-16T07:49:19;4.22;;;2.75;;
66472;SDS011;53291;51.680;8.344;2022-08-16T07:51:45;4.70;;;3.28;;
66472;SDS011;53291;51.680;8.344;2022-08-16T07:54:10;5.68;;;2.40;;
66472;SDS011;53291;51.680;8.344;2022-08-16T07:56:36;7.20;;;3.47;;
66472;SDS011;53291;51.680;8.344;2022-08-16T07:59:02;4.78;;;3.25;;
66472;SDS011;53291;51.680;8.344;2022-08-16T08:01:28;5.28;;;3.28;;
66472;SDS011;53291;51.680;8.344;2022-08-16T08:03:54;4.45;;;3.53;;
66472;SDS011;53291;51.680;8.344;2022-08-16T08:06:22;4.88;;;3.55;;
66472;SDS011;53291;51.680;8.344;2022-08-16T08:08:48;3.97;;;3.55;;
66472;SDS011;53291;51.680;8.344;2022-08-16T08:11:14;4.32;;;3.40;;
66472;SDS011;53291;51.680;8.344;2022-08-16T08:13:40;4.68;;;3.58;;
66472;SDS011;53291;51.680;8.344;2022-08-16T08:16:05;4.55;;;3.58;;
66472;SDS011;53291;51.680;8.344;2022-08-16T08:18:31;3.95;;;3.15;;
66472;SDS011;53291;51.680;8.344;2022-08-16T08:20:57;4.43;;;3.35;;
66472;SDS011;53291;51.680;8.344;2022-08-16T08:23:23;5.30;;;3.30;;
66472;SDS011;53291;51.680;8.344;2022-08-16T08:25:49;5.65;;;3.47;;
66472;SDS011;53291;51.680;8.344;2022-08-16T08:28:15;4.22;;;3.60;;
66472;SDS011;53291;51.680;8.344;2022-08-16T08:30:41;4.43;;;3.50;;
66472;SDS011;53291;51.680;8.344;2022-08-16T08:33:07;3.80;;;3.40;;
66472;SDS011;53291;51.680;8.344;2022-08-16T08:35:33;3.65;;;3.13;;
66472;SDS011;53291;51.680;8.344;2022-08-16T08:37:59;3.80;;;3.40;;
66472;SDS011;53291;51.680;8.344;2022-08-16T08:40:25;3.83;;;3.45;;
66472;SDS011;53291;51.680;8.344;2022-08-16T08:42:51;5.15;;;3.28;;
66472;SDS011;53291;51.680;8.344;2022-08-16T08:45:17;4.25;;;3.17;;
66472;SDS011;53291;51.680;8.344;2022-08-16T08:47:43;4.82;;;3.85;;
66472;SDS011;53291;51.680;8.344;2022-08-16T08:50:11;5.10;;;3.30;;
66472;SDS011;53291;51.680;8.344;2022-08-16T08:52:36;8.32;;;3.63;;
66472;SDS011;53291;51.680;8.344;2022-08-16T08:55:03;6.45;;;3.55;;
66472;SDS011;53291;51.680;8.344;2022-08-16T08:57:34;6.43;;;3.97;;
66472;SDS011;53291;51.680;8.344;2022-08-16T08:59:59;4.90;;;3.70;;
66472;SDS011;53291;51.680;8.344;2022-08-16T09:02:25;8.80;;;4.88;;
66472;SDS011;53291;51.680;8.344;2022-08-16T09:04:50;4.03;;;3.30;;
66472;SDS011;53291;51.680;8.344;2022-08-16T09:07:16;4.80;;;3.55;;
66472;SDS011;53291;51.680;8.344;2022-08-16T09:09:41;5.05;;;3.67;;
66472;SDS011;53291;51.680;8.344;2022-08-16T09:12:07;5.50;;;4.50;;
66472;SDS011;53291;51.680;8.344;2022-08-16T09:14:33;8.48;;;5.63;;
66472;SDS011;53291;51.680;8.344;2022-08-16T09:17:00;5.65;;;3.45;;
66472;SDS011;53291;51.680;8.344;2022-08-16T09:19:26;4.88;;;4.00;;
66472;SDS011;53291;51.680;8.344;2022-08-16T09:21:51;5.28;;;4.30;;
66472;SDS011;53291;51.680;8.344;2022-08-16T09:24:17;5.18;;;4.15;;
66472;SDS011;53291;51.680;8.344;2022-08-16T09:26:42;4.95;;;4.47;;
66472;SDS011;53291;51.680;8.344;2022-08-16T09:29:08;4.03;;;3.65;;
66472;SDS011;53291;51.680;8.344;2022-08-16T09:31:33;5.57;;;4.18;;
66472;SDS011;53291;51.680;8.344;2022-08-16T09:33:59;7.03;;;3.92;;
66472;SDS011;53291;51.680;8.344;2022-08-16T09:36:25;4.25;;;3.83;;
66472;SDS011;53291;51.680;8.344;2022-08-16T09:38:53;4.38;;;3.83;;
66472;SDS011;53291;51.680;8.344;2022-08-16T09:41:19;4.95;;;2.72;;
66472;SDS011;53291;51.680;8.344;2022-08-16T09:43:44;4.40;;;3.65;;
66472;SDS011;53291;51.680;8.344;2022-08-16T09:46:09;4.72;;;4.15;;
66472;SDS011;53291;51.680;8.344;2022-08-16T09:48:36;5.90;;;4.30;;
66472;SDS011;53291;51.680;8.344;2022-08-16T09:51:05;4.97;;;4.15;;
66472;SDS011;53291;51.680;8.344;2022-08-16T09:53:32;4.47;;;3.65;;
66472;SDS011;53291;51.680;8.344;2022-08-16T09:55:57;5.55;;;4.22;;
66472;SDS011;53291;51.680;8.344;2022-08-16T09:58:24;4.72;;;3.95;;
66472;SDS011;53291;51.680;8.344;2022-08-16T10:00:51;5.25;;;3.92;;
66472;SDS011;53291;51.680;8.344;2022-08-16T10:03:18;5.55;;;3.88;;
66472;SDS011;53291;51.680;8.344;2022-08-16T10:05:44;5.57;;;3.50;;
66472;SDS011;53291;51.680;8.344;2022-08-16T10:08:11;5.20;;;3.88;;
66472;SDS011;53291;51.680;8.344;2022-08-16T10:10:37;4.78;;;4.22;;
66472;SDS011;53291;51.680;8.344;2022-08-16T10:13:05;5.15;;;3.47;;
66472;SDS011;53291;51.680;8.344;2022-08-16T10:15:38;5.63;;;4.63;;
66472;SDS011;53291;51.680;8.344;2022-08-16T10:18:09;4.75;;;4.35;;
66472;SDS011;53291;51.680;8.344;2022-08-16T10:20:41;5.15;;;4.68;;
66472;SDS011;53291;51.680;8.344;2022-08-16T10:23:10;4.80;;;3.40;;
66472;SDS011;53291;51.680;8.344;2022-08-16T10:25:39;6.25;;;4.68;;
66472;SDS011;53291;51.680;8.344;2022-08-16T10:28:06;5.28;;;4.78;;
66472;SDS011;53291;51.680;8.344;2022-08-16T10:30:32;5.28;;;4.80;;
66472;SDS011;53291;51.680;8.344;2022-08-16T10:32:59;5.13;;;4.60;;
66472;SDS011;53291;51.680;8.344;2022-08-16T10:35:24;6.90;;;5.10;;
66472;SDS011;53291;51.680;8.344;2022-08-16T10:37:50;5.35;;;4.85;;
66472;SDS011;53291;51.680;8.344;2022-08-16T10:40:16;5.55;;;4.65;;
66472;SDS011;53291;51.680;8.344;2022-08-16T10:42:41;5.28;;;4.82;;
66472;SDS011;53291;51.680;8.344;2022-08-16T10:45:07;6.20;;;4.70;;
66472;SDS011;53291;51.680;8.344;2022-08-16T10:47:33;5.72;;;5.00;;
66472;SDS011;53291;51.680;8.344;2022-08-16T10:49:59;4.88;;;4.47;;
66472;SDS011;53291;51.680;8.344;2022-08-16T10:52:25;7.00;;;4.75;;
66472;SDS011;53291;51.680;8.344;2022-08-16T10:54:51;5.05;;;4.55;;
66472;SDS011;53291;51.680;8.344;2022-08-16T10:57:16;5.82;;;5.25;;
66472;SDS011;53291;51.680;8.344;2022-08-16T10:59:41;6.28;;;4.60;;
66472;SDS011;53291;51.680;8.344;2022-08-16T11:02:08;5.32;;;4.82;;
66472;SDS011;53291;51.680;8.344;2022-08-16T11:04:34;3.80;;;3.30;;
66472;SDS011;53291;51.680;8.344;2022-08-16T11:07:00;5.57;;;4.72;;
66472;SDS011;53291;51.680;8.344;2022-08-16T11:09:26;6.65;;;4.55;;
66472;SDS011;53291;51.680;8.344;2022-08-16T11:11:51;4.97;;;4.10;;
66472;SDS011;53291;51.680;8.344;2022-08-16T11:14:16;5.93;;;4.32;;
66472;SDS011;53291;51.680;8.344;2022-08-16T11:16:43;6.45;;;4.28;;
66472;SDS011;53291;51.680;8.344;2022-08-16T11:19:08;5.05;;;3.78;;
66472;SDS011;53291;51.680;8.344;2022-08-16T11:21:34;5.45;;;3.75;;
66472;SDS011;53291;51.680;8.344;2022-08-16T11:24:01;4.35;;;3.65;;
66472;SDS011;53291;51.680;8.344;2022-08-16T11:26:27;5.30;;;4.22;;
66472;SDS011;53291;51.680;8.344;2022-08-16T11:28:54;5.70;;;4.13;;
66472;SDS011;53291;51.680;8.344;2022-08-16T11:31:21;6.03;;;3.75;;
66472;SDS011;53291;51.680;8.344;2022-08-16T11:33:47;5.35;;;4.10;;
66472;SDS011;53291;51.680;8.344;2022-08-16T11:36:12;5.88;;;3.92;;
66472;SDS011;53291;51.680;8.344;2022-08-16T11:38:38;5.45;;;3.95;;
66472;SDS011;53291;51.680;8.344;2022-08-16T11:41:03;5.28;;;4.03;;
66472;SDS011;53291;51.680;8.344;2022-08-16T11:43:37;4.57;;;3.95;;
66472;SDS011;53291;51.680;8.344;2022-08-16T11:46:07;7.40;;;4.00;;
66472;SDS011;53291;51.680;8.344;2022-08-16T11:48:35;5.30;;;4.00;;
66472;SDS011;53291;51.680;8.344;2022-08-16T11:51:01;5.28;;;3.75;;
66472;SDS011;53291;51.680;8.344;2022-08-16T11:53:27;5.18;;;3.15;;
66472;SDS011;53291;51.680;8.344;2022-08-16T11:55:55;5.18;;;3.85;;
66472;SDS011;53291;51.680;8.344;2022-08-16T11:58:24;4.55;;;3.67;;
66472;SDS011;53291;51.680;8.344;2022-08-16T12:00:52;5.50;;;4.07;;
66472;SDS011;53291;51.680;8.344;2022-08-16T12:03:20;5.82;;;4.13;;
66472;SDS011;53291;51.680;8.344;2022-08-16T12:05:47;7.72;;;3.88;;
66472;SDS011;53291;51.680;8.344;2022-08-16T12:08:13;5.07;;;4.28;;
66472;SDS011;53291;51.680;8.344;2022-08-16T12:10:39;5.18;;;3.08;;
66472;SDS011;53291;51.680;8.344;2022-08-16T12:13:06;6.70;;;3.90;;
66472;SDS011;53291;51.680;8.344;2022-08-16T12:15:33;5.10;;;3.80;;
66472;SDS011;53291;51.680;8.344;2022-08-16T12:17:59;5.22;;;3.90;;
66472;SDS011;53291;51.680;8.344;2022-08-16T12:20:25;6.10;;;4.25;;
66472;SDS011;53291;51.680;8.344;2022-08-16T12:22:53;4.32;;;3.92;;
66472;SDS011;53291;51.680;8.344;2022-08-16T12:25:19;5.20;;;4.18;;
66472;SDS011;53291;51.680;8.344;2022-08-16T12:27:46;4.45;;;4.00;;
66472;SDS011;53291;51.680;8.344;2022-08-16T12:30:14;5.72;;;3.90;;
66472;SDS011;53291;51.680;8.344;2022-08-16T12:32:42;4.65;;;3.00;;
66472;SDS011;53291;51.680;8.344;2022-08-16T12:35:09;5.03;;;3.92;;
66472;SDS011;53291;51.680;8.344;2022-08-16T12:40:02;6.27;;;4.23;;
66472;SDS011;53291;51.680;8.344;2022-08-16T12:42:28;5.65;;;2.88;;
66472;SDS011;53291;51.680;8.344;2022-08-16T12:44:58;4.93;;;3.75;;
66472;SDS011;53291;51.680;8.344;2022-08-16T12:47:24;4.95;;;3.45;;
66472;SDS011;53291;51.680;8.344;2022-08-16T12:50:08;4.63;;;3.35;;
66472;SDS011;53291;51.680;8.344;2022-08-16T12:52:33;4.88;;;3.70;;
66472;SDS011;53291;51.680;8.344;2022-08-16T12:55:00;6.20;;;3.75;;
66472;SDS011;53291;51.680;8.344;2022-08-16T12:57:26;5.05;;;3.80;;
66472;SDS011;53291;51.680;8.344;2022-08-16T12:59:51;5.75;;;4.10;;
66472;SDS011;53291;51.680;8.344;2022-08-16T13:02:17;6.22;;;3.70;;
66472;SDS011;53291;51.680;8.344;2022-08-16T13:04:43;5.57;;;4.07;;
66472;SDS011;53291;51.680;8.344;2022-08-16T13:07:09;8.45;;;3.80;;
66472;SDS011;53291;51.680;8.344;2022-08-16T13:09:34;5.93;;;3.05;;
66472;SDS011;53291;51.680;8.344;2022-08-16T13:12:07;6.78;;;4.32;;
66472;SDS011;53291;51.680;8.344;2022-08-16T13:14:47;5.43;;;4.20;;
66472;SDS011;53291;51.680;8.344;2022-08-16T13:17:16;5.78;;;4.22;;
66472;SDS011;53291;51.680;8.344;2022-08-16T13:19:45;5.82;;;3.75;;
66472;SDS011;53291;51.680;8.344;2022-08-16T13:22:12;5.93;;;3.67;;
66472;SDS011;53291;51.680;8.344;2022-08-16T13:24:38;5.80;;;3.90;;
66472;SDS011;53291;51.680;8.344;2022-08-16T13:27:03;5.28;;;3.70;;
66472;SDS011;53291;51.680;8.344;2022-08-16T13:29:29;5.28;;;3.58;;
66472;SDS011;53291;51.680;8.344;2022-08-16T13:31:54;6.18;;;4.60;;
66472;SDS011;53291;51.680;8.344;2022-08-16T13:34:20;5.28;;;3.78;;
66472;SDS011;53291;51.680;8.344;2022-08-16T13:36:46;6.43;;;3.25;;
66472;SDS011;53291;51.680;8.344;2022-08-16T13:39:11;5.22;;;4.15;;
66472;SDS011;53291;51.680;8.344;2022-08-16T13:41:36;5.05;;;4.10;;
66472;SDS011;53291;51.680;8.344;2022-08-16T13:44:02;6.90;;;4.25;;
66472;SDS011;53291;51.680;8.344;2022-08-16T13:46:28;4.82;;;3.80;;
66472;SDS011;53291;51.680;8.344;2022-08-16T13:48:56;6.07;;;4.30;;
66472;SDS011;53291;51.680;8.344;2022-08-16T13:51:22;5.53;;;3.85;;
66472;SDS011;53291;51.680;8.344;2022-08-16T13:53:49;4.82;;;3.22;;
66472;SDS011;53291;51.680;8.344;2022-08-16T13:56:16;6.13;;;3.60;;
66472;SDS011;53291;51.680;8.344;2022-08-16T13:58:43;4.97;;;3.20;;
66472;SDS011;53291;51.680;8.344;2022-08-16T14:01:08;5.50;;;2.80;;
66472;SDS011;53291;51.680;8.344;2022-08-16T14:03:34;6.35;;;3.38;;
66472;SDS011;53291;51.680;8.344;2022-08-16T14:05:59;4.25;;;3.78;;
66472;SDS011;53291;51.680;8.344;2022-08-16T14:08:26;5.82;;;4.00;;
66472;SDS011;53291;51.680;8.344;2022-08-16T14:10:51;5.00;;;4.00;;
66472;SDS011;53291;51.680;8.344;2022-08-16T14:13:17;6.53;;;4.15;;
66472;SDS011;53291;51.680;8.344;2022-08-16T14:15:42;6.47;;;4.13;;
66472;SDS011;53291;51.680;8.344;2022-08-16T14:18:07;5.47;;;3.85;;
66472;SDS011;53291;51.680;8.344;2022-08-16T14:20:33;6.35;;;3.67;;
66472;SDS011;53291;51.680;8.344;2022-08-16T14:22:58;5.28;;;4.32;;
66472;SDS011;53291;51.680;8.344;2022-08-16T14:25:24;5.15;;;3.97;;
66472;SDS011;53291;51.680;8.344;2022-08-16T14:27:49;5.38;;;4.45;;
66472;SDS011;53291;51.680;8.344;2022-08-16T14:30:17;4.53;;;3.60;;
66472;SDS011;53291;51.680;8.344;2022-08-16T14:32:43;4.90;;;3.83;;
66472;SDS011;53291;51.680;8.344;2022-08-16T14:35:12;5.90;;;3.35;;
66472;SDS011;53291;51.680;8.344;2022-08-16T14:37:42;5.85;;;3.88;;
66472;SDS011;53291;51.680;8.344;2022-08-16T14:40:08;5.25;;;3.75;;
66472;SDS011;53291;51.680;8.344;2022-08-16T14:42:36;5.55;;;3.85;;
66472;SDS011;53291;51.680;8.344;2022-08-16T14:45:03;4.80;;;3.65;;
66472;SDS011;53291;51.680;8.344;2022-08-16T14:47:29;4.55;;;3.75;;
66472;SDS011;53291;51.680;8.344;2022-08-16T14:49:55;5.35;;;4.15;;
66472;SDS011;53291;51.680;8.344;2022-08-16T14:52:21;5.57;;;3.67;;